• Join FlightAware (Why Join?)
  • Login
  • US Flag 
02:06PM EST


 

Airport Tracker/Info


-or-


 

Live Flight TrackerFlight Track Log ✈ VH-BLD ✈ 10-May-2013 ✈ YBCG / OOL - YBAF

Flight Track Log - Related Links

Times and Time Zones

All times are in EDT time to prevent confusion due to time zone crossing. See the VH-BLD flight status page for this flight to view local times or setup timezone preferences in your user account.

Time Position Orientation Groundspeed Altitude Reporting Facility
EDT Latitude Longitude Course Direction KTS MPH feet Rate Location/Type
12:58AM -28.1850 153.5423 57° Northeast 96 110 600  Level Aus ATC (RADAR)
12:59AM -28.1790 153.5528 57° Northeast 96 110 700 -120 Climbing Aus ATC (RADAR)
12:59AM -28.1604 153.5575 12° North 123 142 500 -300 Descending Aus ATC (RADAR)
01:00AM -28.1599 153.5199 271° West 130 150 300  Descending Aus ATC (RADAR)
01:01AM -28.1456 153.5061 320° Northwest 112 129 500 120 Climbing Aus ATC (RADAR)
01:01AM -28.1252 153.4883 322° Northwest 121 139 500  Level Aus ATC (RADAR)
01:02AM -28.1119 153.4760 321° Northwest 121 139 500  Level Aus ATC (RADAR)
01:03AM -28.0893 153.4634 334° Northwest 118 136 500 -120 Level Aus ATC (RADAR)
01:03AM -28.0734 153.4512 326° Northwest 119 137 400 -120 Descending Aus ATC (RADAR)
01:04AM -28.0552 153.4441 341° North 116 133 400  Level Aus ATC (RADAR)
01:05AM -28.0287 153.4394 351° North 113 130 400  Level Aus ATC (RADAR)
01:05AM -28.0160 153.4372 351° North 112 129 400  Level Aus ATC (RADAR)
01:06AM -27.9975 153.4349 354° North 113 130 400 60 Level Aus ATC (RADAR)
01:06AM -27.9711 153.4330 356° North 114 131 500  Climbing Aus ATC (RADAR)
01:07AM -27.9516 153.4322 358° North 119 137 400  Descending Aus ATC (RADAR)
01:08AM -27.9226 153.4306 357° North 116 133 500 120 Climbing Aus ATC (RADAR)
01:08AM -27.9095 153.4287 352° North 114 131 600  Climbing Aus ATC (RADAR)
01:09AM -27.8906 153.4289 North 116 133 500 180 Descending Aus ATC (RADAR)
01:10AM -27.8660 153.4209 344° North 113 130 900 420 Climbing Aus ATC (RADAR)
01:10AM -27.8507 153.4019 312° West 119 137 1,200 420 Climbing Aus ATC (RADAR)
01:11AM -27.8337 153.3815 313° West 116 133 1,500 120 Climbing Aus ATC (RADAR)
01:12AM -27.8227 153.3704 318° Northwest 122 140 1,400 -120 Descending Aus ATC (RADAR)
01:12AM -27.8062 153.3500 313° West 129 148 1,400  Level Aus ATC (RADAR)
01:13AM -27.7745 153.3197 320° Northwest 131 151 1,400  Level Aus ATC (RADAR)
01:14AM -27.7667 153.3146 330° Northwest 129 148 1,400  Level Aus ATC (RADAR)
01:14AM -27.7521 153.2977 314° West 128 147 1,400  Level Aus ATC (RADAR)
01:15AM -27.7327 153.2737 312° West 122 140 1,400  Level Aus ATC (RADAR)
01:16AM -27.7200 153.2547 307° West 127 146 1,400  Level Aus ATC (RADAR)
01:17AM -27.7025 153.2286 307° West 123 142 1,400  Level Aus ATC (RADAR)
01:17AM -27.6931 153.2163 311° West 122 140 1,400 60 Level Aus ATC (RADAR)
01:18AM -27.6615 153.1819 316° Northwest 125 144 1,500  Climbing Aus ATC (RADAR)
01:19AM -27.6474 153.1644 312° West 128 147 1,400 -120 Descending Aus ATC (RADAR)
01:19AM -27.6419 153.1565 308° West 127 146 1,400 -120 Level Aus ATC (RADAR)
01:20AM -27.6282 153.1389 311° West 126 145 1,300 -120 Descending Aus ATC (RADAR)
01:20AM -27.6117 153.1277 329° Northwest 116 133 1,300  Level Aus ATC (RADAR)
01:22AM -27.5993 153.0921 291° West  Level Estimated
01:29AM -27.5703 153.0081 291° West  Level Estimated